Port Cargill, MN

7:46 PM CST on January 24, 2017 (GMT -0600)
Overlook Circle | | Change Station
Active Advisory: Winter Weather Advisory

Elev 818 ft 44.80 °N, 93.34 °W | Updated 30 seconds ago

Overcast
Overcast
33.4 °F
Feels Like 33 °F
N
0.0
Wind Variable Wind from South
Gusts 0.0 mph

Today
High -- | Low -- °F
--% Chance of Precip.
Yesterday
High -- | Low -- °F
Precip. -- in
Pressure 29.80 in
Visibility 9.0 miles
Clouds Overcast 1500 ft
Windchill 33 °F
Dew Point 30 °F
Humidity 87%
Rainfall 0.00 in
Snow Depth Not available.
7:40 AM 5:11 PM
Waning Crescent, 9% visible
METAR KFCM 250053Z 06005KT 9SM OVC015 01/M03 A2977 RMK AO2 SLP090 T00061033
Pressure 29.80 in
Visibility 9.0 miles
Clouds Overcast 1500 ft
Windchill 33 °F
Dew Point 30 °F
Humidity 87%
Rainfall 0.00 in
Snow Depth Not available.
7:40 AM 5:11 PM
Waning Crescent, 9% visible
METAR KFCM 250053Z 06005KT 9SM OVC015 01/M03 A2977 RMK AO2 SLP090 T00061033

Get Your Daily Forecast Email!

Thanks for signing up!

Be on the lookout for a verification email in your inbox.

You'll start receiving the daily forecast at 8 AM.

×

10-Day Weather Forecast

Almanac

Astronomy

Jan. 24, 2017 Rise Set
Actual Time
Civil Twilight
Nautical Twilight
Astronomical Twilight
Moon
Length of Visible Light
Length of Day
Tomorrow will be .
, % of the Moon is Illuminated

Today's Extremes

State Highs State Lows

Community

WunderPhotos

Upload Photos

1,962,540 photos uploaded!

WunderBlog® & News

Nearby

Air Quality

  Air Quality AQ Index Pollutant
Not available.

Snow Depth

Station Depth Elevation

Earthquake Activity

City Distance Mag. Time & Date
Minimum magnitude displayed is 2.5.

Coastal Water Temperatures

Place Temperature

Stations

Nearby Weather Stations

Station Location Temp. Windchill Dew Point Humidity Wind Precip. Elev Updated Type
                   

Watches & Warnings

Winter Weather Advisory
Issued: 3:35 PM CST Jan. 24, 2017 – National Weather Service

... Winter Weather Advisory remains in effect until noon CST
Wednesday...

* timing... snow will spread into the area this evening... with the
best chance of accumulating snowfall after midnight.

* Main impact... accumulating snow from 3 to 6 inches is possible
and this could lead to difficult travel

* other impacts... blowing and drifting snow with low
visibilities possible Wednesday

Precautionary/preparedness actions...

A Winter Weather Advisory for snow means that periods of snow
will cause primarily travel difficulties. Be prepared for snow
covered roads and limited visibilities... and use caution while
driving.



Jlt